Lake Emily, Wisconsin
Current Conditions -  °F | °C
As of 6:35 AM on Thursday 23 Oct 2014 (Local Time) from KSTE Reporting Station
Moderate Rain Moderate Rain  
Wind Chill: 36°   Ceiling: 4400
Heat Index: 39°   Visibility: 5mi
Dew Point: 37°   Wind: 5mph
Humidity: 90%   Direction: 160°SSE
Pressure: 30.13"   Gusts: NA
Location:  44.5312°N, 89.2955°W
Report Text: KSTE 231135Z AUTO 16004KT 5SM RA SCT035 BKN044 OVC060 04/03 A3013 RMK AO2 T00400025
Loading
Personal Weather Stations






























Interactive Weather Map
Tropical Storm Tracking
New forecast layout! Learn more

10-Day Weather Forecast

Advertisements
Track Severe Weather on mobile